createdAt,value
2019-02-21T07:45:17.334Z,40.00
2019-02-21T07:47:47.891Z,33.87
2019-02-21T07:50:18.443Z,33.17
2019-02-21T07:52:49.078Z,30.97
2019-02-21T07:55:19.607Z,36.30
2019-02-21T07:57:50.244Z,35.07
2019-02-21T08:00:20.913Z,32.27
2019-02-21T08:02:51.508Z,33.10
2019-02-21T08:05:23.730Z,39.07
2019-02-21T08:07:54.404Z,35.30
2019-02-21T08:10:33.255Z,34.23
2019-02-21T08:12:57.372Z,34.20
2019-02-21T08:15:27.981Z,34.17
2019-02-21T08:17:58.570Z,33.77
2019-02-21T08:20:33.933Z,37.33
2019-02-21T08:23:03.043Z,35.13
2019-02-21T08:25:33.493Z,37.73
2019-02-21T08:28:04.015Z,40.83
2019-02-21T08:30:34.740Z,35.67
2019-02-21T08:33:36.943Z,29.80
2019-02-21T08:36:07.493Z,32.37
2019-02-21T08:38:38.079Z,31.10
2019-02-21T08:41:08.683Z,34.97
2019-02-21T08:43:39.214Z,39.03
2019-02-21T08:46:09.888Z,32.40
2019-02-21T08:48:40.637Z,33.17
2019-02-21T08:51:11.226Z,32.63
2019-02-21T08:53:42.883Z,32.00
2019-02-21T08:56:13.465Z,33.53
2019-02-21T08:58:44.058Z,35.03
2019-02-21T09:01:14.543Z,39.20
2019-02-21T09:03:45.086Z,34.57
2019-02-21T09:06:15.646Z,39.37
2019-02-21T09:08:46.392Z,37.90
2019-02-21T09:11:19.748Z,39.33
2019-02-21T09:13:50.534Z,40.87
2019-02-21T09:16:21.223Z,36.40
2019-02-21T09:18:51.796Z,29.20
2019-02-21T09:21:22.436Z,37.37
2019-02-21T09:23:53.075Z,33.30
2019-02-21T09:26:23.652Z,39.57
2019-02-21T09:28:54.161Z,30.03
2019-02-21T09:31:24.705Z,36.33
2019-02-21T09:33:55.571Z,28.73
2019-02-21T09:36:26.597Z,33.53
2019-02-21T09:38:57.670Z,34.87
2019-02-21T09:41:28.751Z,34.90
2019-02-21T09:43:59.437Z,28.57
2019-02-21T09:46:29.925Z,32.90
2019-02-21T09:49:02.925Z,33.20
2019-02-21T09:51:32.730Z,31.93
2019-02-21T09:54:03.356Z,36.97
2019-02-21T09:56:33.940Z,33.70
2019-02-21T09:59:04.524Z,33.33
2019-02-21T10:01:35.194Z,30.70
2019-02-21T10:04:05.786Z,33.63
2019-02-21T10:06:36.423Z,40.23
2019-02-21T10:09:07.598Z,33.60
2019-02-21T10:11:38.828Z,32.93
2019-02-21T10:14:09.495Z,45.33
2019-02-21T10:16:40.094Z,37.80
2019-02-21T10:19:10.740Z,35.40
2019-02-21T10:21:41.226Z,47.43
2019-02-21T10:24:12.947Z,41.47
2019-02-21T10:26:43.508Z,41.33
2019-02-21T10:29:14.077Z,38.33
2019-02-21T10:31:44.555Z,43.43
2019-02-21T10:34:15.086Z,35.67
2019-02-21T10:36:45.574Z,40.73
2019-02-21T10:39:16.189Z,42.53
2019-02-21T10:41:46.649Z,42.10
2019-02-21T10:44:17.275Z,58.23
2019-02-21T10:46:47.793Z,37.47
2019-02-21T10:49:18.408Z,43.50
2019-02-21T10:51:50.034Z,41.33
2019-02-21T10:54:20.610Z,41.73
2019-02-21T10:56:51.135Z,42.83
2019-02-21T10:59:21.667Z,46.13
2019-02-21T11:01:52.154Z,38.60
2019-02-21T11:04:22.628Z,47.57
2019-02-21T11:06:53.350Z,42.87
2019-02-21T11:09:24.322Z,49.70
2019-02-21T11:11:55.142Z,47.53
2019-02-21T11:14:25.756Z,50.37
2019-02-21T11:16:56.393Z,56.33
2019-02-21T11:19:27.156Z,50.33
2019-02-21T11:21:57.790Z,49.50
2019-02-21T11:24:28.420Z,53.27
2019-02-21T11:27:00.386Z,53.87
2019-02-21T11:29:31.003Z,51.60
2019-02-21T11:32:01.800Z,51.00
2019-02-21T11:34:32.332Z,55.43
2019-02-21T11:37:02.966Z,51.13
2019-02-21T11:39:33.574Z,49.30
2019-02-21T11:42:04.170Z,52.00
2019-02-21T11:44:34.776Z,51.97
2019-02-21T11:47:05.936Z,47.20
2019-02-21T11:49:36.634Z,47.70
2019-02-21T11:52:10.178Z,48.00
2019-02-21T11:54:39.760Z,51.70
2019-02-21T11:57:10.218Z,47.57
2019-02-21T11:59:40.709Z,50.47
2019-02-21T12:02:11.412Z,49.37
2019-02-21T12:04:41.984Z,53.07
2019-02-21T12:07:12.543Z,53.13
2019-02-21T12:09:43.138Z,51.10
2019-02-21T12:12:15.428Z,49.27
2019-02-21T12:14:45.958Z,59.73
2019-02-21T12:17:16.550Z,57.20
2019-02-21T12:19:47.069Z,57.57
2019-02-21T12:22:17.649Z,49.17
2019-02-21T12:24:48.187Z,51.80
2019-02-21T12:27:18.685Z,50.43
2019-02-21T12:29:49.146Z,52.83
2019-02-21T12:32:19.599Z,51.07
2019-02-21T12:34:50.147Z,55.87
2019-02-21T12:37:20.995Z,52.50
2019-02-21T12:39:51.516Z,54.53
2019-02-21T12:42:23.079Z,52.33
2019-02-21T12:44:53.684Z,52.30
2019-02-21T12:47:24.270Z,57.17
2019-02-21T12:49:55.523Z,60.73
2019-02-21T12:52:26.148Z,57.60
2019-02-21T12:54:56.729Z,55.10
2019-02-21T12:57:27.149Z,63.37
2019-02-21T12:59:57.587Z,59.50
2019-02-21T13:02:28.106Z,60.20
2019-02-21T13:04:58.590Z,54.30
2019-02-21T13:07:29.244Z,58.33
2019-02-21T13:10:00.070Z,55.30
2019-02-21T13:12:32.159Z,57.00
2019-02-21T13:15:02.845Z,56.10
2019-02-21T13:17:33.881Z,58.83
2019-02-21T13:20:04.920Z,61.57
2019-02-21T13:22:35.410Z,59.07
2019-02-21T13:25:06.416Z,59.57
2019-02-21T13:27:37.128Z,57.77
2019-02-21T13:30:11.060Z,59.10
2019-02-21T13:32:41.632Z,59.00
2019-02-21T13:35:12.328Z,53.77
2019-02-21T13:37:42.834Z,55.87
2019-02-21T13:40:14.240Z,55.93
2019-02-21T13:42:45.350Z,56.23
2019-02-21T13:45:17.585Z,61.43
2019-02-21T13:47:48.248Z,60.90
2019-02-21T13:50:18.879Z,59.67
2019-02-21T13:52:50.848Z,58.20
2019-02-21T13:55:21.445Z,57.87
2019-02-21T13:57:51.932Z,59.73
2019-02-21T14:00:22.534Z,50.77
2019-02-21T14:02:53.025Z,55.20
2019-02-21T14:05:23.758Z,54.07
2019-02-21T14:07:54.262Z,63.30
2019-02-21T14:10:24.787Z,56.77
2019-02-21T14:12:55.544Z,57.73
2019-02-21T14:15:26.430Z,60.40
2019-02-21T14:17:56.986Z,54.80
2019-02-21T14:20:27.583Z,51.20
2019-02-21T14:22:58.147Z,53.50
2019-02-21T14:25:39.997Z,47.73
2019-02-21T14:28:01.053Z,53.43
2019-02-21T14:30:31.603Z,58.10
2019-02-21T14:33:03.519Z,61.87
2019-02-21T14:35:34.139Z,52.67
2019-02-21T14:38:04.769Z,63.00
2019-02-21T14:40:35.427Z,56.03
2019-02-21T14:43:05.961Z,58.63
2019-02-21T14:45:36.642Z,63.83
2019-02-21T14:48:07.278Z,70.80
2019-02-21T14:50:37.848Z,67.77
2019-02-21T14:53:08.566Z,65.17
2019-02-21T14:55:39.244Z,64.90
2019-02-21T14:58:09.743Z,69.70
2019-02-21T15:00:40.854Z,70.77
2019-02-21T15:03:21.682Z,68.47
2019-02-21T15:05:43.861Z,74.70
2019-02-21T15:14:12.107Z,80.43
2019-02-21T15:16:42.818Z,86.30
2019-02-21T15:25:06.214Z,74.47
2019-02-21T15:27:36.782Z,87.17
2019-02-21T15:30:09.930Z,78.93
2019-02-21T15:32:40.689Z,75.63
2019-02-21T15:35:11.575Z,70.17
2019-02-21T15:37:45.015Z,71.20
2019-02-21T15:40:15.924Z,70.30
2019-02-21T15:42:46.616Z,76.07
2019-02-21T15:45:23.316Z,70.40
2019-02-21T15:47:51.388Z,70.07
2019-02-21T15:50:22.299Z,60.83
2019-02-21T15:52:53.909Z,61.50
2019-02-21T15:55:24.571Z,66.40
2019-02-21T15:58:03.156Z,63.03
2019-02-21T16:00:27.339Z,67.40
2019-02-21T16:02:58.001Z,58.10
2019-02-21T16:05:28.637Z,56.13
2019-02-21T16:07:59.223Z,56.03
2019-02-21T16:10:29.932Z,56.77
2019-02-21T16:13:04.221Z,58.70
2019-02-21T16:15:32.952Z,55.43
2019-02-21T16:18:03.945Z,50.17
2019-02-21T16:20:34.563Z,49.00
2019-02-21T16:23:05.172Z,45.40
2019-02-21T16:25:35.765Z,49.07
2019-02-21T16:28:06.341Z,44.93
2019-02-21T16:30:37.569Z,45.00
2019-02-21T16:33:08.347Z,51.63
2019-02-21T16:35:38.920Z,50.33
2019-02-21T16:38:09.491Z,49.17
2019-02-21T16:40:41.188Z,49.63
2019-02-21T16:43:11.751Z,58.40
2019-02-21T16:45:46.303Z,57.00
2019-02-21T16:48:14.611Z,62.63
2019-02-21T16:50:45.357Z,65.63
2019-02-21T16:53:16.088Z,62.37
2019-02-21T16:55:46.853Z,66.00
2019-02-21T16:58:17.463Z,71.37
2019-02-21T17:00:54.716Z,69.80
2019-02-21T17:03:20.281Z,80.43
2019-02-21T17:05:52.879Z,84.67
2019-02-21T17:08:24.680Z,85.87
2019-02-21T17:10:55.245Z,91.10
2019-02-21T17:13:25.786Z,97.70
2019-02-21T17:15:56.407Z,98.67
2019-02-21T17:18:27.002Z,106.00
2019-02-21T17:20:57.596Z,107.00
2019-02-21T17:23:28.490Z,104.63
2019-02-21T17:26:00.189Z,103.47
2019-02-21T17:28:30.833Z,108.27
2019-02-21T17:31:01.415Z,105.50
2019-02-21T17:33:32.155Z,97.83
2019-02-21T17:36:02.825Z,97.10
2019-02-21T17:38:33.381Z,75.57
2019-02-21T17:41:03.943Z,93.87
2019-02-21T17:43:34.689Z,82.50
2019-02-21T17:46:05.302Z,76.40
2019-02-21T17:48:36.509Z,73.20
2019-02-21T17:51:07.105Z,70.50
2019-02-21T17:53:37.665Z,61.30
2019-02-21T17:56:08.833Z,52.03
2019-02-21T17:58:39.283Z,54.53
2019-02-21T18:01:09.855Z,50.80
2019-02-21T18:03:41.628Z,53.50
2019-02-21T18:06:12.336Z,57.20
2019-02-21T18:08:43.062Z,52.60
2019-02-21T18:11:13.660Z,47.13
2019-02-21T18:13:44.157Z,48.77
2019-02-21T18:16:15.023Z,43.93
2019-02-21T18:18:45.647Z,48.83
2019-02-21T18:21:16.240Z,46.53
2019-02-21T18:23:46.851Z,42.67
2019-02-21T18:26:21.198Z,46.90
2019-02-21T18:28:52.711Z,49.57
2019-02-21T18:31:25.535Z,45.77
2019-02-21T18:33:56.114Z,43.03
2019-02-21T18:36:26.998Z,42.83
2019-02-21T18:38:57.649Z,41.97
2019-02-21T18:41:28.385Z,42.77
2019-02-21T18:43:59.088Z,47.30
2019-02-21T18:46:29.654Z,49.47
2019-02-21T18:49:00.215Z,46.07
2019-02-21T18:51:30.724Z,46.17
2019-02-21T18:54:01.403Z,51.33
2019-02-21T18:56:32.104Z,45.00
2019-02-21T18:59:05.051Z,54.57
2019-02-21T19:01:35.985Z,42.53
2019-02-21T19:04:06.767Z,48.53
2019-02-21T19:06:37.323Z,41.87
2019-02-21T19:09:08.844Z,47.47
2019-02-21T19:11:39.820Z,51.43
2019-02-21T19:14:10.409Z,44.17
2019-02-21T19:16:41.161Z,46.47
2019-02-21T19:19:11.746Z,47.87
2019-02-21T19:21:42.406Z,48.33
2019-02-21T19:24:13.082Z,50.40
2019-02-21T19:26:43.732Z,44.60
2019-02-21T19:29:14.450Z,55.00
2019-02-21T19:31:45.072Z,52.93
2019-02-21T19:34:15.815Z,56.20
2019-02-21T19:36:46.524Z,49.67
2019-02-21T19:39:17.180Z,54.03
2019-02-21T19:41:47.815Z,55.50
2019-02-21T19:44:18.469Z,52.60
2019-02-21T19:46:49.048Z,48.77
2019-02-21T19:49:19.676Z,48.37
2019-02-21T19:51:50.399Z,54.50
2019-02-21T19:54:21.117Z,50.33
2019-02-21T19:56:51.607Z,49.77
2019-02-21T19:59:22.270Z,50.03
2019-02-21T20:01:53.246Z,46.20
2019-02-21T20:04:23.879Z,54.67
2019-02-21T20:06:54.709Z,45.50
2019-02-21T20:09:25.342Z,56.00
2019-02-21T20:11:55.896Z,56.90
2019-02-21T20:14:26.444Z,60.30
2019-02-21T20:16:57.040Z,61.77
2019-02-21T20:19:29.960Z,53.77
2019-02-21T20:22:00.594Z,63.17
2019-02-21T20:24:31.298Z,54.20
2019-02-21T20:27:01.855Z,57.50
2019-02-21T20:29:32.534Z,57.47
2019-02-21T20:32:03.130Z,55.90
2019-02-21T20:34:35.114Z,54.33
2019-02-21T20:37:05.723Z,51.90
2019-02-21T20:39:36.786Z,60.97
2019-02-21T20:42:07.384Z,52.77
2019-02-21T20:44:37.982Z,57.70
2019-02-21T20:47:08.592Z,57.53
2019-02-21T20:49:39.879Z,55.70
2019-02-21T20:52:10.547Z,56.77
2019-02-21T20:54:41.082Z,59.70
2019-02-21T20:57:11.664Z,55.27
2019-02-21T20:59:42.237Z,54.77
2019-02-21T21:02:13.237Z,57.87
2019-02-21T21:04:43.965Z,58.30
2019-02-21T21:07:24.572Z,55.40
2019-02-21T21:09:46.835Z,60.20
2019-02-21T21:12:17.711Z,59.33
2019-02-21T21:14:48.263Z,57.33
2019-02-21T21:17:19.231Z,61.83
2019-02-21T21:19:49.962Z,62.60
2019-02-21T21:22:20.546Z,63.57
2019-02-21T21:24:51.097Z,63.23
2019-02-21T21:27:21.728Z,58.60
2019-02-21T21:29:52.231Z,60.93
2019-02-21T21:32:22.948Z,69.33
2019-02-21T21:34:53.536Z,63.37
2019-02-21T21:37:24.144Z,73.67
2019-02-21T21:39:56.242Z,74.83
2019-02-21T21:42:26.757Z,72.23
2019-02-21T21:44:57.329Z,71.80
2019-02-21T21:47:27.953Z,69.40
2019-02-21T21:49:58.450Z,69.07
2019-02-21T21:52:29.070Z,71.07
2019-02-21T21:54:59.636Z,82.67
2019-02-21T21:57:30.302Z,79.90
2019-02-21T22:00:00.867Z,78.63
2019-02-21T22:02:32.440Z,72.20
2019-02-21T22:05:02.917Z,82.07
2019-02-21T22:07:33.702Z,79.93
2019-02-21T22:10:06.672Z,78.70
2019-02-21T22:12:37.431Z,83.00
2019-02-21T22:15:09.146Z,84.47
2019-02-21T22:17:42.123Z,97.30
2019-02-21T22:20:12.486Z,88.20
2019-02-21T22:22:43.178Z,87.30
2019-02-21T22:25:14.770Z,99.67
2019-02-21T22:27:45.508Z,100.63
2019-02-21T22:30:17.131Z,95.37
2019-02-21T22:32:47.978Z,89.57
2019-02-21T22:35:18.802Z,88.43
2019-02-21T22:37:49.572Z,99.47
2019-02-21T22:40:20.402Z,96.67
2019-02-21T22:42:51.234Z,99.87
2019-02-21T22:45:22.084Z,100.70
2019-02-21T22:47:52.782Z,108.60
2019-02-21T22:50:26.837Z,119.27
2019-02-21T22:52:57.042Z,123.73
2019-02-21T22:55:27.944Z,161.80
2019-02-21T22:57:58.697Z,158.73
2019-02-21T23:00:59.674Z,200.60
2019-02-21T23:04:14.249Z,225.23
2019-02-21T23:06:57.839Z,206.27
2019-02-21T23:09:29.025Z,257.67
2019-02-21T23:11:59.919Z,283.90
2019-02-21T23:14:30.962Z,319.93
2019-02-21T23:17:01.875Z,224.50
2019-02-21T23:19:32.713Z,213.87
2019-02-21T23:22:03.696Z,189.13
2019-02-21T23:24:34.575Z,205.47
2019-02-21T23:27:05.402Z,185.07
2019-02-21T23:29:36.188Z,207.60
2019-02-21T23:32:06.953Z,187.67
2019-02-21T23:34:44.242Z,224.70
2019-02-21T23:37:15.061Z,200.23
2019-02-21T23:39:45.902Z,189.53
2019-02-21T23:42:18.076Z,207.10
2019-02-21T23:44:49.221Z,173.53
2019-02-21T23:47:20.039Z,210.00
2019-02-21T23:49:50.851Z,168.50
2019-02-21T23:52:21.683Z,174.37
2019-02-21T23:54:57.773Z,191.73
2019-02-21T23:57:27.820Z,168.20
2019-02-21T23:59:58.797Z,183.17
